Terminal Aerodrome Forecast
Issued by NWS

Home | Current Version | Previous Version | Text Only | Print | Product List | Glossary On
Versions: 1 2 3 4 5 6 7 8 9 10 11 12 13 14
667
FTUS41 KBGM 251151
TAFITH
TAF
KITH 251151Z 2512/2612 08004KT P6SM SCT120
      TEMPO 2512/2516 SHRA OVC040
     FM251700 26009KT P6SM BKN100
      TEMPO 2517/2521 24015G25KT 3SM TSRA BR BKN025CB
     FM252100 30005KT P6SM BKN250=

USA.gov is the U.S. government's official web portal to all federal, state and local government web resources and services.